Time;durP1;ratioP1;P1;durP2;ratioP2;P2;SDS_P1;SDS_P2;PMS_P1;PMS_P2;Temp;Humidity;BMP_temperature;BMP_pressure;BME280_temperature;BME280_humidity;BME280_pressure;Samples;Min_cycle;Max_cycle;Signal;HPM_P1;HPM_P2
2024/03/15 00:02:10;;;;;;;;;;;17.90;60.60;;;;;;5039571;28;1596;-72
2024/03/15 00:04:36;;;;;;;;;;;17.90;60.70;;;;;;5037526;28;457957;-73
2024/03/15 00:07:01;;;;;;;;;;;17.80;60.60;;;;;;5069358;28;1171;-73
2024/03/15 00:09:28;;;;;;;;;;;17.80;60.60;;;;;;5071065;28;1583;-73
2024/03/15 00:11:55;;;;;;;;;;;17.80;60.60;;;;;;5039011;28;1325;-73
2024/03/15 00:14:21;;;;;;;;;;;17.90;61.40;;;;;;5039335;28;1564;-72
2024/03/15 00:16:50;;;;;;;;;;;17.90;60.70;;;;;;5034086;28;1256;-72
2024/03/15 00:19:19;;;;;;;;;;;17.80;60.60;;;;;;5036653;28;1198;-73
2024/03/15 00:21:45;;;;;;;;;;;17.90;60.70;;;;;;5038792;28;1463;-72
2024/03/15 00:24:11;;;;;;;;;;;17.80;60.70;;;;;;5036360;28;2012;-72
2024/03/15 00:26:37;;;;;;;;;;;17.80;60.70;;;;;;5040879;28;1410;-73
2024/03/15 00:29:03;;;;;;;;;;;17.80;60.70;;;;;;5071737;28;1399;-72
2024/03/15 00:31:29;;;;;;;;;;;17.80;60.70;;;;;;5035914;28;1545;-73
2024/03/15 00:33:54;;;;;;;;;;;17.80;60.70;;;;;;5045738;28;1615;-73
2024/03/15 00:36:20;;;;;;;;;;;17.80;60.70;;;;;;5034971;28;1537;-73
2024/03/15 00:38:45;;;;;;;;;;;17.80;60.70;;;;;;5022907;28;1421;-73
2024/03/15 00:41:11;;;;;;;;;;;17.80;60.80;;;;;;5036711;28;1507;-73
2024/03/15 00:43:37;;;;;;;;;;;17.80;60.80;;;;;;5035895;28;1902;-72
2024/03/15 00:46:02;;;;;;;;;;;17.80;60.70;;;;;;5036381;28;1117;-73
2024/03/15 00:48:28;;;;;;;;;;;17.80;60.80;;;;;;5032686;28;853;-73
2024/03/15 00:50:53;;;;;;;;;;;17.90;60.80;;;;;;5040830;28;1308;-74
2024/03/15 00:53:19;;;;;;;;;;;17.80;60.80;;;;;;5039629;28;1320;-74
2024/03/15 00:55:44;;;;;;;;;;;17.80;60.80;;;;;;5038652;28;1269;-74
2024/03/15 00:58:10;;;;;;;;;;;17.80;60.80;;;;;;5036160;28;1288;-74
2024/03/15 01:00:35;;;;;;;;;;;17.80;60.80;;;;;;5041676;28;942;-73
2024/03/15 01:03:02;;;;;;;;;;;17.80;60.80;;;;;;5046450;28;1307;-73
2024/03/15 01:05:27;;;;;;;;;;;17.80;60.80;;;;;;5038913;28;2138;-73
2024/03/15 01:07:53;;;;;;;;;;;17.80;60.80;;;;;;5032746;28;1461;-72
2024/03/15 01:10:19;;;;;;;;;;;17.80;60.90;;;;;;5042075;28;1142;-73
2024/03/15 01:12:44;;;;;;;;;;;17.80;60.80;;;;;;5026277;28;1338;-73
2024/03/15 01:15:10;;;;;;;;;;;17.80;60.80;;;;;;5074949;28;998;-73
2024/03/15 01:17:36;;;;;;;;;;;17.80;60.90;;;;;;5039672;28;1068;-73
2024/03/15 01:20:02;;;;;;;;;;;17.80;60.90;;;;;;5032534;28;1172;-72
2024/03/15 01:22:28;;;;;;;;;;;17.80;60.90;;;;;;5043395;28;1475;-72
2024/03/15 01:24:53;;;;;;;;;;;17.80;60.90;;;;;;5040686;28;1991;-72
2024/03/15 01:27:22;;;;;;;;;;;17.80;60.90;;;;;;5074290;28;1235;-72
2024/03/15 01:29:48;;;;;;;;;;;17.80;60.90;;;;;;5040978;28;1785;-72
2024/03/15 01:32:13;;;;;;;;;;;17.80;60.90;;;;;;5044255;28;1397;-73
2024/03/15 01:34:39;;;;;;;;;;;17.80;60.90;;;;;;5040087;28;1494;-72
2024/03/15 01:37:04;;;;;;;;;;;17.80;60.90;;;;;;5057230;28;1214;-72
2024/03/15 01:39:29;;;;;;;;;;;17.80;60.90;;;;;;5041586;28;1431;-72
2024/03/15 01:41:55;;;;;;;;;;;17.80;60.90;;;;;;5033437;28;1471;-72
2024/03/15 01:44:21;;;;;;;;;;;17.80;60.90;;;;;;5043622;28;1933;-72
2024/03/15 01:46:47;;;;;;;;;;;17.80;61.00;;;;;;5042542;28;1426;-72
2024/03/15 01:49:12;;;;;;;;;;;17.80;61.00;;;;;;5043165;28;1283;-72
2024/03/15 01:51:37;;;;;;;;;;;17.80;61.00;;;;;;5041272;28;1126;-72
2024/03/15 01:54:03;;;;;;;;;;;17.80;61.00;;;;;;5040336;28;1523;-72
2024/03/15 01:56:28;;;;;;;;;;;17.80;61.00;;;;;;5038574;28;1570;-72
2024/03/15 01:58:54;;;;;;;;;;;17.80;61.00;;;;;;5058132;28;1537;-72
2024/03/15 02:01:19;;;;;;;;;;;17.80;61.00;;;;;;5047869;28;1253;-72
2024/03/15 02:03:46;;;;;;;;;;;17.80;61.00;;;;;;5039290;28;1979;-72
2024/03/15 02:06:13;;;;;;;;;;;17.80;61.00;;;;;;5042671;28;1424;-72
2024/03/15 02:08:38;;;;;;;;;;;17.80;61.00;;;;;;5039102;28;1489;-73
2024/03/15 02:11:04;;;;;;;;;;;17.80;61.00;;;;;;5038192;28;1349;-72
2024/03/15 02:13:29;;;;;;;;;;;17.80;61.10;;;;;;5042840;28;1341;-72
2024/03/15 02:15:55;;;;;;;;;;;17.80;61.50;;;;;;5040142;28;1347;-71
2024/03/15 02:18:21;;;;;;;;;;;17.90;61.60;;;;;;5043636;28;1167;-71
2024/03/15 02:20:46;;;;;;;;;;;17.90;61.40;;;;;;5040867;28;1640;-72
2024/03/15 02:23:12;;;;;;;;;;;17.90;61.20;;;;;;5038830;28;1292;-71
2024/03/15 02:25:37;;;;;;;;;;;17.90;61.20;;;;;;5042787;28;1898;-70
2024/03/15 02:28:06;;;;;;;;;;;17.90;61.20;;;;;;5037204;28;1380;-69
2024/03/15 02:30:31;;;;;;;;;;;17.90;61.20;;;;;;5037726;28;1392;-71
2024/03/15 02:32:58;;;;;;;;;;;17.90;61.10;;;;;;5038774;28;1590;-71
2024/03/15 02:35:24;;;;;;;;;;;17.90;61.10;;;;;;5041534;28;1367;-72
2024/03/15 02:37:50;;;;;;;;;;;17.90;61.10;;;;;;5060896;28;1266;-69
2024/03/15 02:40:15;;;;;;;;;;;17.80;61.10;;;;;;5040226;28;936;-72
2024/03/15 02:42:42;;;;;;;;;;;17.80;61.10;;;;;;5048877;28;1634;-72
2024/03/15 02:45:08;;;;;;;;;;;17.80;61.10;;;;;;5040987;28;1875;-71
2024/03/15 02:47:36;;;;;;;;;;;17.80;61.10;;;;;;5041502;28;1262;-72
2024/03/15 02:50:02;;;;;;;;;;;17.80;61.10;;;;;;5040794;28;946;-71
2024/03/15 02:52:28;;;;;;;;;;;17.80;61.10;;;;;;5039458;28;1402;-70
2024/03/15 02:54:56;;;;;;;;;;;17.80;61.20;;;;;;5043662;28;1518;-71
2024/03/15 02:57:22;;;;;;;;;;;17.80;61.20;;;;;;5027202;28;1454;-73
2024/03/15 02:59:47;;;;;;;;;;;17.80;61.20;;;;;;5047344;28;1356;-71
2024/03/15 03:02:14;;;;;;;;;;;17.80;61.20;;;;;;5030823;28;1545;-71
2024/03/15 03:04:40;;;;;;;;;;;17.80;61.20;;;;;;5040689;28;1902;-71
2024/03/15 03:07:06;;;;;;;;;;;17.80;61.20;;;;;;5040007;28;1361;-71
2024/03/15 03:09:31;;;;;;;;;;;17.80;61.20;;;;;;5044516;28;1322;-71
2024/03/15 03:11:57;;;;;;;;;;;17.80;61.20;;;;;;5046357;28;1430;-70
2024/03/15 03:14:23;;;;;;;;;;;17.80;61.20;;;;;;5039187;28;1362;-71
2024/03/15 03:16:49;;;;;;;;;;;17.80;61.20;;;;;;5038513;28;1561;-71
2024/03/15 03:19:17;;;;;;;;;;;17.80;61.20;;;;;;5072872;28;1554;-71
2024/03/15 03:21:45;;;;;;;;;;;17.80;61.20;;;;;;5057702;28;1525;-70
2024/03/15 03:24:11;;;;;;;;;;;17.70;61.20;;;;;;5040758;28;1965;-70
2024/03/15 03:26:37;;;;;;;;;;;17.80;61.30;;;;;;5038574;28;1446;-70
2024/03/15 03:29:02;;;;;;;;;;;17.80;61.30;;;;;;5037805;28;1238;-69
2024/03/15 03:31:28;;;;;;;;;;;17.80;61.30;;;;;;5030411;28;1558;-69
2024/03/15 03:33:53;;;;;;;;;;;17.80;61.30;;;;;;5040903;28;1326;-69
2024/03/15 03:36:19;;;;;;;;;;;17.80;61.30;;;;;;5036669;28;1471;-70
2024/03/15 03:38:44;;;;;;;;;;;17.80;61.30;;;;;;5040509;28;1453;-71
2024/03/15 03:41:10;;;;;;;;;;;17.80;61.30;;;;;;5037838;28;1470;-71
2024/03/15 03:43:37;;;;;;;;;;;17.80;61.30;;;;;;5041041;28;1886;-71
2024/03/15 03:46:06;;;;;;;;;;;17.80;61.30;;;;;;5039362;28;939;-71
2024/03/15 03:48:32;;;;;;;;;;;17.80;61.30;;;;;;5040785;28;923;-71
2024/03/15 03:51:00;;;;;;;;;;;17.70;61.30;;;;;;5042258;28;903;-71
2024/03/15 03:53:26;;;;;;;;;;;17.70;61.30;;;;;;5038292;28;1513;-70
2024/03/15 03:55:51;;;;;;;;;;;17.80;61.40;;;;;;5038235;28;1487;-70
2024/03/15 03:58:17;;;;;;;;;;;17.80;61.30;;;;;;5041178;28;1311;-70
2024/03/15 04:00:42;;;;;;;;;;;17.80;61.40;;;;;;5035797;28;1364;-70
2024/03/15 04:03:08;;;;;;;;;;;17.70;61.30;;;;;;5038429;28;1347;-69
2024/03/15 04:05:33;;;;;;;;;;;17.70;61.30;;;;;;5038273;28;1984;-70
2024/03/15 04:08:02;;;;;;;;;;;17.70;61.30;;;;;;5046020;28;1541;-70
2024/03/15 04:10:28;;;;;;;;;;;17.70;61.30;;;;;;5037438;28;839;-70
2024/03/15 04:12:55;;;;;;;;;;;17.70;61.30;;;;;;5039887;28;1426;-69
2024/03/15 04:15:20;;;;;;;;;;;17.70;61.30;;;;;;5038560;28;1516;-70
2024/03/15 04:17:46;;;;;;;;;;;17.70;61.30;;;;;;5052865;28;1390;-74
2024/03/15 04:20:18;;;;;;;;;;;17.70;61.30;;;;;;5036153;28;1273;-73
2024/03/15 04:22:43;;;;;;;;;;;17.70;61.30;;;;;;5035045;28;1343;-73
2024/03/15 04:25:09;;;;;;;;;;;17.70;61.40;;;;;;5044947;28;1906;-73
2024/03/15 04:27:35;;;;;;;;;;;17.70;61.30;;;;;;5035453;28;1361;-73
2024/03/15 04:30:13;;;;;;;;;;;17.70;61.40;;;;;;5033928;28;1236;-72
2024/03/15 04:32:39;;;;;;;;;;;17.70;61.40;;;;;;5044663;28;1488;-72
2024/03/15 04:35:06;;;;;;;;;;;17.70;61.40;;;;;;5069027;28;1491;-72
2024/03/15 04:37:32;;;;;;;;;;;17.70;61.40;;;;;;5039025;28;1522;-71
2024/03/15 04:39:57;;;;;;;;;;;17.70;62.10;;;;;;5040083;28;1467;-70
2024/03/15 04:42:28;;;;;;;;;;;17.70;61.40;;;;;;5041576;28;1486;-71
2024/03/15 04:44:53;;;;;;;;;;;17.70;61.40;;;;;;5041446;28;1938;-71
2024/03/15 04:47:19;;;;;;;;;;;17.70;61.40;;;;;;5040315;28;1463;-71
2024/03/15 04:49:44;;;;;;;;;;;17.70;61.40;;;;;;5044230;28;1615;-71
2024/03/15 04:52:11;;;;;;;;;;;17.70;61.40;;;;;;5042814;28;1461;-71
2024/03/15 04:54:38;;;;;;;;;;;17.70;61.40;;;;;;5041091;28;1575;-71
2024/03/15 04:57:03;;;;;;;;;;;17.70;61.40;;;;;;5042044;28;1330;-71
2024/03/15 04:59:29;;;;;;;;;;;17.70;61.40;;;;;;5042036;28;915;-71
2024/03/15 05:01:54;;;;;;;;;;;17.70;61.40;;;;;;5042544;28;1706;-71
2024/03/15 05:04:20;;;;;;;;;;;17.70;61.40;;;;;;5041489;28;1914;-71
2024/03/15 05:06:46;;;;;;;;;;;17.70;61.40;;;;;;5026678;28;1326;-71
2024/03/15 05:09:11;;;;;;;;;;;17.70;61.40;;;;;;5041418;28;1151;-71
2024/03/15 05:11:39;;;;;;;;;;;17.70;61.50;;;;;;5042483;28;1163;-71
2024/03/15 05:14:05;;;;;;;;;;;17.70;61.30;;;;;;5043721;28;1322;-71
2024/03/15 05:16:31;;;;;;;;;;;17.80;61.40;;;;;;5039113;28;1351;-70
2024/03/15 05:18:56;;;;;;;;;;;17.80;61.30;;;;;;5048918;28;1744;-71
2024/03/15 05:21:22;;;;;;;;;;;17.80;61.20;;;;;;5038992;28;1381;-71
2024/03/15 05:23:48;;;;;;;;;;;17.80;61.10;;;;;;5040856;28;1906;-72
2024/03/15 05:26:13;;;;;;;;;;;17.90;61.00;;;;;;5039640;28;1424;-70
2024/03/15 05:28:39;;;;;;;;;;;17.90;60.90;;;;;;5041440;28;1872;-70
2024/03/15 05:31:04;;;;;;;;;;;17.90;60.80;;;;;;5039864;28;1323;-70
2024/03/15 05:33:30;;;;;;;;;;;17.90;60.70;;;;;;5048633;28;1363;-70
2024/03/15 05:35:56;;;;;;;;;;;18.00;60.60;;;;;;5041145;28;1686;-72
2024/03/15 05:38:21;;;;;;;;;;;18.00;60.50;;;;;;5042063;28;1295;-71
2024/03/15 05:40:47;;;;;;;;;;;18.00;60.40;;;;;;5039710;28;1470;-70
2024/03/15 05:43:13;;;;;;;;;;;18.10;60.40;;;;;;5041908;28;1570;-71
2024/03/15 05:45:39;;;;;;;;;;;18.10;60.30;;;;;;5041170;28;1956;-71
2024/03/15 05:48:04;;;;;;;;;;;18.10;60.20;;;;;;5040050;28;1517;-71
2024/03/15 05:50:32;;;;;;;;;;;18.10;60.20;;;;;;5040063;28;1469;-71
2024/03/15 05:53:00;;;;;;;;;;;18.10;60.00;;;;;;5040951;28;1289;-71
2024/03/15 05:55:28;;;;;;;;;;;18.20;60.00;;;;;;5042651;28;1507;-71
2024/03/15 05:57:54;;;;;;;;;;;18.20;60.00;;;;;;5041590;28;1452;-71
2024/03/15 06:00:21;;;;;;;;;;;18.20;60.00;;;;;;5040477;28;1390;-71
2024/03/15 06:02:51;;;;;;;;;;;18.20;59.90;;;;;;5039956;28;1736;-71
2024/03/15 06:05:22;;;;;;;;;;;18.20;59.90;;;;;;5041244;28;1910;-71
2024/03/15 06:07:47;;;;;;;;;;;18.20;59.80;;;;;;5039331;28;1236;-71
2024/03/15 06:10:14;;;;;;;;;;;18.20;59.80;;;;;;5041151;28;962;-69
2024/03/15 06:12:39;;;;;;;;;;;18.20;59.80;;;;;;5038837;28;1547;-69
2024/03/15 06:15:05;;;;;;;;;;;18.20;59.80;;;;;;5040554;28;1403;-69
2024/03/15 06:17:31;;;;;;;;;;;18.30;59.80;;;;;;5025198;28;1269;-70
2024/03/15 06:19:57;;;;;;;;;;;18.30;59.70;;;;;;5039050;28;1726;-70
2024/03/15 06:22:24;;;;;;;;;;;18.20;59.70;;;;;;5042470;28;1589;-70
2024/03/15 06:24:49;;;;;;;;;;;18.30;59.70;;;;;;5037613;28;1975;-70
2024/03/15 06:27:16;;;;;;;;;;;18.20;59.70;;;;;;5037865;28;1299;-70
2024/03/15 06:29:49;;;;;;;;;;;18.30;59.70;;;;;;5040499;28;1140;-70
2024/03/15 06:32:17;;;;;;;;;;;18.20;59.70;;;;;;5039065;28;977;-71
2024/03/15 06:34:44;;;;;;;;;;;18.20;59.70;;;;;;5039548;28;1465;-71
2024/03/15 06:37:12;;;;;;;;;;;18.30;59.70;;;;;;5040290;28;1317;-71
2024/03/15 06:42:24;;;;;;;;;;;18.30;59.70;;;;;;5041985;28;1106;-71
2024/03/15 06:45:03;;;;;;;;;;;18.30;59.70;;;;;;5041298;28;2021;-71
2024/03/15 06:47:31;;;;;;;;;;;18.20;59.70;;;;;;5039864;28;1448;-71
2024/03/15 06:50:06;;;;;;;;;;;18.30;60.30;;;;;;5038378;28;1294;-71
2024/03/15 06:52:35;;;;;;;;;;;18.20;59.70;;;;;;5040147;28;1466;-71
2024/03/15 06:55:04;;;;;;;;;;;18.20;59.70;;;;;;5037758;28;1380;-70
2024/03/15 06:57:29;;;;;;;;;;;18.20;59.70;;;;;;5040155;28;1270;-71
2024/03/15 06:59:55;;;;;;;;;;;18.20;59.70;;;;;;5046704;28;1639;-71
2024/03/15 07:02:21;;;;;;;;;;;18.20;59.80;;;;;;5034063;28;1257;-71
2024/03/15 07:04:50;;;;;;;;;;;18.20;59.70;;;;;;5038204;28;1910;-71
2024/03/15 07:07:22;;;;;;;;;;;18.30;59.80;;;;;;5038923;28;1276;-70
2024/03/15 07:09:47;;;;;;;;;;;18.20;59.80;;;;;;5042242;28;1445;-71
2024/03/15 07:12:15;;;;;;;;;;;18.20;59.80;;;;;;5040284;28;1591;-70
2024/03/15 07:14:42;;;;;;;;;;;18.20;59.80;;;;;;5039813;28;1382;-72
2024/03/15 07:17:09;;;;;;;;;;;18.20;59.80;;;;;;5038572;28;1261;-72
2024/03/15 07:19:34;;;;;;;;;;;18.20;59.80;;;;;;5037309;28;1519;-72
2024/03/15 07:22:00;;;;;;;;;;;18.20;59.90;;;;;;5039091;28;1286;-72
2024/03/15 07:24:26;;;;;;;;;;;18.20;59.90;;;;;;5039697;28;1928;-72
2024/03/15 07:26:51;;;;;;;;;;;18.20;59.90;;;;;;5040623;28;1423;-72
2024/03/15 07:29:17;;;;;;;;;;;18.20;59.90;;;;;;5037213;28;1004;-72
2024/03/15 07:31:42;;;;;;;;;;;18.20;59.90;;;;;;5045033;28;1152;-71
2024/03/15 07:34:08;;;;;;;;;;;18.20;60.00;;;;;;5043602;28;1370;-71
2024/03/15 07:36:33;;;;;;;;;;;18.20;59.90;;;;;;5042020;28;1534;-69
2024/03/15 07:38:59;;;;;;;;;;;18.20;60.00;;;;;;5038013;28;2298;-71
2024/03/15 07:41:28;;;;;;;;;;;18.20;60.00;;;;;;5036697;28;1605;-70
2024/03/15 07:43:54;;;;;;;;;;;18.20;60.00;;;;;;5038074;28;1898;-69
2024/03/15 07:46:19;;;;;;;;;;;18.20;60.00;;;;;;5038108;28;931;-70
2024/03/15 07:48:45;;;;;;;;;;;18.20;60.10;;;;;;5038851;28;1466;-69
2024/03/15 07:51:10;;;;;;;;;;;18.10;60.00;;;;;;5040625;28;1208;-70
2024/03/15 07:53:36;;;;;;;;;;;18.20;60.10;;;;;;5041174;28;1351;-69
2024/03/15 07:56:03;;;;;;;;;;;18.10;60.10;;;;;;5022784;28;1403;-69
2024/03/15 07:58:31;;;;;;;;;;;18.10;60.10;;;;;;5039732;28;1553;-67
2024/03/15 08:00:57;;;;;;;;;;;18.10;60.10;;;;;;5037187;28;1391;-72
2024/03/15 08:03:23;;;;;;;;;;;18.10;60.10;;;;;;5038363;28;1328;-72
2024/03/15 08:05:49;;;;;;;;;;;18.10;60.10;;;;;;5035728;28;1975;-72
2024/03/15 08:08:15;;;;;;;;;;;18.10;60.10;;;;;;5038603;28;1137;-72
2024/03/15 08:10:41;;;;;;;;;;;18.10;60.20;;;;;;5036987;28;1154;-72
2024/03/15 08:13:07;;;;;;;;;;;18.10;60.10;;;;;;5035669;28;1508;-72
2024/03/15 08:15:33;;;;;;;;;;;18.10;60.20;;;;;;5038441;28;1245;-71
2024/03/15 08:17:59;;;;;;;;;;;18.10;60.20;;;;;;5040452;28;1378;-71
2024/03/15 08:20:24;;;;;;;;;;;18.10;60.20;;;;;;5043698;28;1181;-70
2024/03/15 08:22:49;;;;;;;;;;;18.10;60.20;;;;;;5043040;28;1304;-70
2024/03/15 08:25:15;;;;;;;;;;;18.10;60.20;;;;;;5042840;28;1949;-70
2024/03/15 08:27:44;;;;;;;;;;;18.10;60.20;;;;;;5042681;28;1229;-71
2024/03/15 08:30:12;;;;;;;;;;;18.10;60.20;;;;;;5042314;28;1330;-71
2024/03/15 08:32:38;;;;;;;;;;;18.10;60.20;;;;;;5044292;28;1502;-70
2024/03/15 08:35:04;;;;;;;;;;;18.10;60.20;;;;;;5044914;28;1602;-71
2024/03/15 08:37:30;;;;;;;;;;;18.10;60.20;;;;;;5043864;28;1266;-70
2024/03/15 08:39:56;;;;;;;;;;;18.10;60.30;;;;;;5043447;28;1432;-70
2024/03/15 08:42:21;;;;;;;;;;;18.10;60.20;;;;;;5041605;28;1228;-71
2024/03/15 08:44:48;;;;;;;;;;;18.10;60.20;;;;;;5040675;28;1973;-70
2024/03/15 08:47:15;;;;;;;;;;;18.10;60.20;;;;;;5040857;28;1539;-70
2024/03/15 08:49:41;;;;;;;;;;;18.10;60.20;;;;;;5044234;28;1256;-70
2024/03/15 08:52:06;;;;;;;;;;;18.10;60.20;;;;;;5041330;28;1352;-70
2024/03/15 08:54:33;;;;;;;;;;;18.10;60.20;;;;;;5042723;28;1430;-69
2024/03/15 08:57:02;;;;;;;;;;;18.10;60.20;;;;;;5041530;28;1513;-70
2024/03/15 08:59:28;;;;;;;;;;;18.10;60.20;;;;;;5041020;28;1353;-71
2024/03/15 09:01:53;;;;;;;;;;;18.10;60.20;;;;;;5041610;28;1554;-70
2024/03/15 09:04:22;;;;;;;;;;;18.10;60.30;;;;;;5041186;28;1906;-70
2024/03/15 09:06:48;;;;;;;;;;;18.10;60.30;;;;;;5042846;28;1293;-69
2024/03/15 09:09:14;;;;;;;;;;;18.10;60.30;;;;;;5024580;28;1373;-69
2024/03/15 09:11:41;;;;;;;;;;;18.10;60.30;;;;;;5049723;28;1440;-69
2024/03/15 09:14:07;;;;;;;;;;;18.10;60.30;;;;;;5041893;28;1342;-69
2024/03/15 09:16:35;;;;;;;;;;;18.10;60.30;;;;;;5038650;28;1147;-69
2024/03/15 09:19:03;;;;;;;;;;;18.10;60.40;;;;;;5040866;28;1596;-70
2024/03/15 09:21:30;;;;;;;;;;;18.10;60.40;;;;;;5041243;28;1124;-69
2024/03/15 09:23:56;;;;;;;;;;;18.10;60.40;;;;;;5049203;28;1898;-69
2024/03/15 09:26:22;;;;;;;;;;;18.10;60.40;;;;;;5039539;28;994;-71
2024/03/15 09:28:49;;;;;;;;;;;18.10;60.40;;;;;;5042723;28;986;-70
2024/03/15 09:31:15;;;;;;;;;;;18.10;60.50;;;;;;5039357;28;1106;-70
2024/03/15 09:33:43;;;;;;;;;;;18.10;60.40;;;;;;5041953;28;1559;-71
2024/03/15 09:36:16;;;;;;;;;;;18.10;60.50;;;;;;5042655;28;1443;-70
2024/03/15 09:38:45;;;;;;;;;;;18.10;60.50;;;;;;5042392;28;1326;-71
2024/03/15 09:41:12;;;;;;;;;;;18.00;60.40;;;;;;5043111;28;1314;-71
2024/03/15 09:43:39;;;;;;;;;;;18.10;60.50;;;;;;5040912;28;1967;-72
2024/03/15 09:46:06;;;;;;;;;;;18.00;60.50;;;;;;5042537;28;1570;-72
2024/03/15 09:48:32;;;;;;;;;;;18.00;60.50;;;;;;5048933;28;1326;-72
2024/03/15 09:51:00;;;;;;;;;;;18.00;60.50;;;;;;5024460;28;1598;-73
2024/03/15 09:53:26;;;;;;;;;;;18.00;60.60;;;;;;5040712;28;1398;-73
2024/03/15 09:55:52;;;;;;;;;;;18.00;60.60;;;;;;5040602;28;1537;-73
2024/03/15 09:58:21;;;;;;;;;;;18.00;60.60;;;;;;5046912;28;1938;-72
2024/03/15 10:00:47;;;;;;;;;;;18.00;60.60;;;;;;5042256;28;1457;-73
2024/03/15 10:03:12;;;;;;;;;;;18.00;60.60;;;;;;5043461;28;1541;-73
2024/03/15 10:05:38;;;;;;;;;;;18.00;60.70;;;;;;5040362;28;1965;-73
2024/03/15 10:08:05;;;;;;;;;;;18.00;60.70;;;;;;5038350;28;1320;-72
2024/03/15 10:10:31;;;;;;;;;;;18.00;60.70;;;;;;5036921;28;954;-72
2024/03/15 10:12:57;;;;;;;;;;;18.00;60.70;;;;;;5039369;28;1470;-73
2024/03/15 10:15:23;;;;;;;;;;;18.00;60.70;;;;;;5036879;28;1290;-73
2024/03/15 10:17:52;;;;;;;;;;;18.00;60.70;;;;;;5039971;28;1252;-73
2024/03/15 10:20:21;;;;;;;;;;;18.00;60.80;;;;;;5040162;28;1316;-72
2024/03/15 10:22:48;;;;;;;;;;;18.00;60.80;;;;;;5057040;28;1480;-73
2024/03/15 10:25:15;;;;;;;;;;;18.00;61.60;;;;;;5039881;28;1964;-73
2024/03/15 10:27:50;;;;;;;;;;;18.00;60.80;;;;;;5041506;28;1339;-73
2024/03/15 10:30:22;;;;;;;;;;;18.00;60.80;;;;;;5038085;28;1588;-72
2024/03/15 10:32:49;;;;;;;;;;;18.00;60.80;;;;;;5039982;28;1537;-72
2024/03/15 10:35:21;;;;;;;;;;;18.00;60.80;;;;;;5037191;28;1374;-72
2024/03/15 10:37:47;;;;;;;;;;;18.00;60.80;;;;;;5040673;28;1186;-73
2024/03/15 10:40:14;;;;;;;;;;;18.00;60.80;;;;;;5039161;28;1448;-71
2024/03/15 10:42:40;;;;;;;;;;;18.00;60.90;;;;;;5041000;28;1457;-71
2024/03/15 10:45:06;;;;;;;;;;;18.00;60.90;;;;;;5041508;28;1922;-72
2024/03/15 10:47:32;;;;;;;;;;;18.00;60.90;;;;;;5064483;28;1340;-71
2024/03/15 10:49:57;;;;;;;;;;;18.00;60.90;;;;;;5043769;28;1328;-71
2024/03/15 10:52:23;;;;;;;;;;;17.90;60.90;;;;;;5036534;28;1449;-71
2024/03/15 10:54:48;;;;;;;;;;;18.00;60.90;;;;;;5039343;28;1465;-72
2024/03/15 10:57:14;;;;;;;;;;;18.00;60.90;;;;;;5070738;28;1244;-73
2024/03/15 10:59:41;;;;;;;;;;;18.00;60.90;;;;;;5040527;28;1319;-73
2024/03/15 11:02:07;;;;;;;;;;;18.00;60.90;;;;;;5042565;28;1671;-73
2024/03/15 11:04:33;;;;;;;;;;;18.00;60.90;;;;;;5038414;28;1910;-71
2024/03/15 11:06:59;;;;;;;;;;;18.00;60.90;;;;;;5074329;28;1327;-74
2024/03/15 11:09:24;;;;;;;;;;;18.00;61.00;;;;;;5040373;28;1313;-73
2024/03/15 11:12:00;;;;;;;;;;;18.00;61.00;;;;;;5039163;28;1238;-74
2024/03/15 11:14:26;;;;;;;;;;;18.00;61.00;;;;;;5046523;28;1332;-71
2024/03/15 11:16:56;;;;;;;;;;;18.00;61.00;;;;;;5022973;28;1383;-73
2024/03/15 11:19:22;;;;;;;;;;;18.00;61.00;;;;;;5044572;28;1406;-72
2024/03/15 11:21:47;;;;;;;;;;;18.00;61.00;;;;;;5056245;28;1953;-73
2024/03/15 11:24:16;;;;;;;;;;;18.00;61.00;;;;;;5025822;28;1937;-72
2024/03/15 11:26:41;;;;;;;;;;;17.90;61.00;;;;;;5037711;28;1508;-73
2024/03/15 11:29:17;;;;;;;;;;;17.90;61.00;;;;;;5039117;28;1314;-73
2024/03/15 11:31:43;;;;;;;;;;;17.90;61.10;;;;;;5039550;28;1447;-73
2024/03/15 11:34:09;;;;;;;;;;;17.90;61.00;;;;;;5038715;28;1580;-72
2024/03/15 11:36:34;;;;;;;;;;;18.00;61.10;;;;;;5040031;28;1574;-72
2024/03/15 11:39:00;;;;;;;;;;;18.00;61.10;;;;;;5038688;28;1504;-72
2024/03/15 11:41:26;;;;;;;;;;;18.00;61.10;;;;;;5039106;28;2056;-72
2024/03/15 11:43:54;;;;;;;;;;;17.90;61.00;;;;;;5041109;28;1957;-72
2024/03/15 11:46:20;;;;;;;;;;;18.00;61.10;;;;;;5038127;28;1434;-72
2024/03/15 11:48:46;;;;;;;;;;;17.90;61.00;;;;;;5037841;28;1835;-72
2024/03/15 11:51:11;;;;;;;;;;;17.90;61.10;;;;;;5038228;28;1427;-72
2024/03/15 11:53:37;;;;;;;;;;;17.90;61.10;;;;;;5069957;28;1506;-72
2024/03/15 11:56:03;;;;;;;;;;;17.90;61.10;;;;;;5037152;28;1743;-72
2024/03/15 11:58:28;;;;;;;;;;;17.90;61.10;;;;;;5035129;28;1514;-73
2024/03/15 12:00:54;;;;;;;;;;;17.90;61.10;;;;;;5040296;28;1420;-72
2024/03/15 12:03:20;;;;;;;;;;;17.90;61.10;;;;;;5041634;28;1296;-71
2024/03/15 12:05:46;;;;;;;;;;;17.90;61.20;;;;;;5047338;28;1910;-72
2024/03/15 12:08:15;;;;;;;;;;;18.00;61.10;;;;;;5049219;28;926;-73
2024/03/15 12:10:40;;;;;;;;;;;18.00;61.10;;;;;;5046775;28;974;-73
2024/03/15 12:13:15;;;;;;;;;;;18.10;61.80;;;;;;5060058;28;1367;-73
2024/03/15 12:15:41;;;;;;;;;;;18.10;61.90;;;;;;5044671;28;871;-73
2024/03/15 12:18:14;;;;;;;;;;;18.10;62.10;;;;;;5045072;28;859;-73
2024/03/15 12:20:43;;;;;;;;;;;18.20;62.00;;;;;;5045456;28;865;-73
2024/03/15 12:23:11;;;;;;;;;;;18.20;61.90;;;;;;5046662;28;1225;-73
2024/03/15 12:25:37;;;;;;;;;;;18.20;61.70;;;;;;5042611;28;1898;-73
2024/03/15 12:28:05;;;;;;;;;;;18.30;61.80;;;;;;5046399;28;1231;-74
2024/03/15 12:30:30;;;;;;;;;;;18.30;61.50;;;;;;5041145;28;880;-73
2024/03/15 12:32:56;;;;;;;;;;;18.30;61.30;;;;;;5049257;28;1259;-73
2024/03/15 12:35:22;;;;;;;;;;;18.30;61.30;;;;;;5021138;28;1891;-74
2024/03/15 12:37:47;;;;;;;;;;;18.30;60.60;;;;;;5038382;28;1380;-74
2024/03/15 12:40:16;;;;;;;;;;;18.40;60.30;;;;;;5036678;28;1640;-74
2024/03/15 12:42:42;;;;;;;;;;;18.40;61.00;;;;;;5029229;28;1341;-74
2024/03/15 12:45:08;;;;;;;;;;;18.40;60.80;;;;;;5040477;28;1898;-74
2024/03/15 12:47:36;;;;;;;;;;;18.40;60.90;;;;;;5039797;28;1302;-74
2024/03/15 12:50:10;;;;;;;;;;;18.40;60.70;;;;;;5039852;28;1720;-74
2024/03/15 12:52:35;;;;;;;;;;;18.30;60.90;;;;;;5044885;28;1445;-74
2024/03/15 12:55:01;;;;;;;;;;;18.40;60.90;;;;;;5037553;28;1895;-74
2024/03/15 12:57:28;;;;;;;;;;;18.40;61.20;;;;;;5037129;28;1362;-73
2024/03/15 12:59:53;;;;;;;;;;;18.40;60.80;;;;;;5039127;28;1423;-74
2024/03/15 13:02:19;;;;;;;;;;;18.40;60.40;;;;;;5041106;28;1456;-74
2024/03/15 13:04:44;;;;;;;;;;;18.40;60.40;;;;;;5039484;28;1910;-74
2024/03/15 13:07:10;;;;;;;;;;;18.40;60.20;;;;;;5043423;28;1453;-74
2024/03/15 13:09:35;;;;;;;;;;;18.40;60.10;;;;;;5041667;28;1065;-74
2024/03/15 13:12:01;;;;;;;;;;;18.40;60.00;;;;;;5031301;28;1866;-74
2024/03/15 13:14:26;;;;;;;;;;;18.40;60.40;;;;;;5040060;28;1558;-74
2024/03/15 13:16:52;;;;;;;;;;;18.40;60.50;;;;;;5043002;28;1530;-74
2024/03/15 13:19:17;;;;;;;;;;;18.40;60.30;;;;;;5040640;28;1983;-74
2024/03/15 13:21:43;;;;;;;;;;;18.40;60.40;;;;;;5040029;28;1550;-74
2024/03/15 13:24:11;;;;;;;;;;;18.40;61.10;;;;;;5040398;28;2067;-74
2024/03/15 13:26:37;;;;;;;;;;;18.40;60.50;;;;;;5039027;28;1413;-74
2024/03/15 13:29:02;;;;;;;;;;;18.40;60.80;;;;;;5038576;28;1961;-74
2024/03/15 13:31:30;;;;;;;;;;;18.40;60.70;;;;;;5042743;28;1468;-74
2024/03/15 13:33:56;;;;;;;;;;;18.40;60.90;;;;;;5037829;28;1892;-74
2024/03/15 13:36:21;;;;;;;;;;;18.40;60.90;;;;;;5024913;28;1292;-73
2024/03/15 13:38:47;;;;;;;;;;;18.40;61.00;;;;;;5050149;28;1257;-74
2024/03/15 13:41:13;;;;;;;;;;;18.30;61.10;;;;;;5053990;28;853;-74
2024/03/15 13:43:41;;;;;;;;;;;18.30;61.20;;;;;;5054149;28;1188;-74
2024/03/15 13:46:12;;;;;;;;;;;18.30;61.30;;;;;;5051417;28;1887;-74
2024/03/15 13:48:38;;;;;;;;;;;18.30;62.00;;;;;;5041297;28;896;-74
2024/03/15 13:51:04;;;;;;;;;;;18.30;60.80;;;;;;5043483;28;1049;-74
2024/03/15 13:53:30;;;;;;;;;;;18.40;60.10;;;;;;5039887;28;1320;-73
2024/03/15 13:55:57;;;;;;;;;;;18.40;59.30;;;;;;5043010;28;1272;-74
2024/03/15 13:58:22;;;;;;;;;;;18.30;59.30;;;;;;5031509;28;1283;-74
2024/03/15 14:00:51;;;;;;;;;;;18.30;59.70;;;;;;5046017;28;974;-74
2024/03/15 14:03:18;;;;;;;;;;;18.30;59.80;;;;;;5045868;28;1437;-73
2024/03/15 14:05:43;;;;;;;;;;;18.30;59.90;;;;;;5045370;28;1906;-73
2024/03/15 14:08:15;;;;;;;;;;;18.20;59.90;;;;;;5057976;28;1618;-73
2024/03/15 14:10:40;;;;;;;;;;;18.20;60.00;;;;;;5038752;28;1048;-72
2024/03/15 14:13:06;;;;;;;;;;;18.20;60.10;;;;;;5038128;28;1348;-74
2024/03/15 14:15:33;;;;;;;;;;;18.20;60.30;;;;;;5047413;28;1533;-73
2024/03/15 14:17:59;;;;;;;;;;;18.20;60.40;;;;;;5041749;28;1504;-73
2024/03/15 14:20:29;;;;;;;;;;;18.20;60.50;;;;;;5038286;28;1337;-73
2024/03/15 14:22:57;;;;;;;;;;;18.10;60.50;;;;;;5039784;28;1694;-73
2024/03/15 14:25:23;;;;;;;;;;;18.10;60.60;;;;;;5024222;28;1954;-73
2024/03/15 14:27:49;;;;;;;;;;;18.10;60.70;;;;;;5026684;28;1581;-73
2024/03/15 14:30:15;;;;;;;;;;;18.10;60.80;;;;;;5038981;28;1206;-73